sensor_id;sensor_type;location;lat;lon;timestamp;pressure;altitude;pressure_sealevel;temperature;humidity
19457;BME280;9867;48.094;11.478;2022-11-14T00:00:50;95188.47;;;4.32;100.00
19457;BME280;9867;48.094;11.478;2022-11-14T00:03:36;95195.00;;;4.35;100.00
19457;BME280;9867;48.094;11.478;2022-11-14T00:06:23;95194.84;;;4.36;100.00
19457;BME280;9867;48.094;11.478;2022-11-14T00:09:09;95192.63;;;4.33;100.00
19457;BME280;9867;48.094;11.478;2022-11-14T00:11:56;95184.19;;;4.98;100.00
19457;BME280;9867;48.094;11.478;2022-11-14T00:14:43;95177.16;;;5.32;100.00
19457;BME280;9867;48.094;11.478;2022-11-14T00:17:30;95183.44;;;5.61;100.00
19457;BME280;9867;48.094;11.478;2022-11-14T00:20:16;95195.97;;;5.07;100.00
19457;BME280;9867;48.094;11.478;2022-11-14T00:23:03;95184.00;;;5.79;100.00
19457;BME280;9867;48.094;11.478;2022-11-14T00:25:49;95191.47;;;6.20;100.00
19457;BME280;9867;48.094;11.478;2022-11-14T00:28:36;95187.50;;;6.85;100.00
19457;BME280;9867;48.094;11.478;2022-11-14T00:31:23;95186.19;;;7.27;100.00
19457;BME280;9867;48.094;11.478;2022-11-14T00:34:10;95189.88;;;7.39;100.00
19457;BME280;9867;48.094;11.478;2022-11-14T00:36:56;95184.59;;;7.41;100.00
19457;BME280;9867;48.094;11.478;2022-11-14T00:39:43;95192.31;;;7.03;100.00
19457;BME280;9867;48.094;11.478;2022-11-14T00:42:29;95186.78;;;7.14;100.00
19457;BME280;9867;48.094;11.478;2022-11-14T00:45:16;95194.09;;;7.17;100.00
19457;BME280;9867;48.094;11.478;2022-11-14T00:48:04;95221.25;;;7.10;100.00
19457;BME280;9867;48.094;11.478;2022-11-14T00:50:50;95225.44;;;7.26;100.00
19457;BME280;9867;48.094;11.478;2022-11-14T00:53:37;95224.91;;;6.93;100.00
19457;BME280;9867;48.094;11.478;2022-11-14T00:56:27;95217.72;;;6.97;100.00
19457;BME280;9867;48.094;11.478;2022-11-14T00:59:13;95217.88;;;6.72;100.00
19457;BME280;9867;48.094;11.478;2022-11-14T01:02:00;95216.59;;;6.54;100.00
19457;BME280;9867;48.094;11.478;2022-11-14T01:04:47;95207.34;;;6.75;100.00
19457;BME280;9867;48.094;11.478;2022-11-14T01:07:34;95214.84;;;5.92;100.00
19457;BME280;9867;48.094;11.478;2022-11-14T01:10:20;95214.91;;;6.38;100.00
19457;BME280;9867;48.094;11.478;2022-11-14T01:13:07;95215.97;;;6.52;100.00
19457;BME280;9867;48.094;11.478;2022-11-14T01:15:53;95216.03;;;6.66;100.00
19457;BME280;9867;48.094;11.478;2022-11-14T01:18:40;95208.75;;;6.01;100.00
19457;BME280;9867;48.094;11.478;2022-11-14T01:21:28;95208.66;;;5.78;100.00
19457;BME280;9867;48.094;11.478;2022-11-14T01:24:15;95216.19;;;6.42;100.00
19457;BME280;9867;48.094;11.478;2022-11-14T01:27:01;95217.72;;;6.74;100.00
19457;BME280;9867;48.094;11.478;2022-11-14T01:29:48;95235.16;;;6.85;100.00
19457;BME280;9867;48.094;11.478;2022-11-14T01:32:34;95236.47;;;5.96;100.00
19457;BME280;9867;48.094;11.478;2022-11-14T01:35:20;95229.31;;;6.31;100.00
19457;BME280;9867;48.094;11.478;2022-11-14T01:38:13;95218.47;;;6.37;100.00
19457;BME280;9867;48.094;11.478;2022-11-14T01:41:00;95223.03;;;5.63;100.00
19457;BME280;9867;48.094;11.478;2022-11-14T01:43:47;95231.06;;;5.03;100.00
19457;BME280;9867;48.094;11.478;2022-11-14T01:46:35;95210.56;;;4.72;100.00
19457;BME280;9867;48.094;11.478;2022-11-14T01:49:25;95200.91;;;4.84;100.00
19457;BME280;9867;48.094;11.478;2022-11-14T01:52:13;95204.06;;;4.54;100.00
19457;BME280;9867;48.094;11.478;2022-11-14T01:55:05;95187.75;;;5.60;100.00
19457;BME280;9867;48.094;11.478;2022-11-14T01:57:52;95184.88;;;4.59;100.00
19457;BME280;9867;48.094;11.478;2022-11-14T02:00:39;95176.91;;;4.87;100.00
19457;BME280;9867;48.094;11.478;2022-11-14T02:03:25;95174.84;;;5.06;100.00
19457;BME280;9867;48.094;11.478;2022-11-14T02:06:14;95170.00;;;5.28;100.00
19457;BME280;9867;48.094;11.478;2022-11-14T02:09:03;95182.06;;;6.20;100.00
19457;BME280;9867;48.094;11.478;2022-11-14T02:11:52;95169.50;;;6.41;100.00
19457;BME280;9867;48.094;11.478;2022-11-14T02:14:41;95179.66;;;5.48;100.00
19457;BME280;9867;48.094;11.478;2022-11-14T02:17:29;95168.28;;;5.67;100.00
19457;BME280;9867;48.094;11.478;2022-11-14T02:20:20;95171.44;;;5.38;100.00
19457;BME280;9867;48.094;11.478;2022-11-14T02:23:06;95184.06;;;4.75;100.00
19457;BME280;9867;48.094;11.478;2022-11-14T02:25:53;95165.31;;;4.27;100.00
19457;BME280;9867;48.094;11.478;2022-11-14T02:28:40;95154.38;;;4.75;100.00
19457;BME280;9867;48.094;11.478;2022-11-14T02:31:26;95150.47;;;5.28;100.00
19457;BME280;9867;48.094;11.478;2022-11-14T02:34:13;95145.91;;;5.07;100.00
19457;BME280;9867;48.094;11.478;2022-11-14T02:37:05;95144.75;;;5.26;100.00
19457;BME280;9867;48.094;11.478;2022-11-14T02:39:52;95149.66;;;5.36;100.00
19457;BME280;9867;48.094;11.478;2022-11-14T02:42:39;95164.81;;;6.07;100.00
19457;BME280;9867;48.094;11.478;2022-11-14T02:45:25;95168.03;;;6.24;100.00
19457;BME280;9867;48.094;11.478;2022-11-14T02:48:12;95170.94;;;6.44;100.00
19457;BME280;9867;48.094;11.478;2022-11-14T02:50:58;95162.13;;;6.32;100.00
19457;BME280;9867;48.094;11.478;2022-11-14T02:53:46;95152.75;;;6.47;100.00
19457;BME280;9867;48.094;11.478;2022-11-14T02:56:33;95164.16;;;6.36;100.00
19457;BME280;9867;48.094;11.478;2022-11-14T02:59:20;95157.50;;;6.73;100.00
19457;BME280;9867;48.094;11.478;2022-11-14T03:02:06;95142.56;;;6.70;100.00
19457;BME280;9867;48.094;11.478;2022-11-14T03:04:53;95141.94;;;6.68;100.00
19457;BME280;9867;48.094;11.478;2022-11-14T03:07:39;95142.25;;;6.65;100.00
19457;BME280;9867;48.094;11.478;2022-11-14T03:10:27;95142.09;;;6.66;100.00
19457;BME280;9867;48.094;11.478;2022-11-14T03:13:14;95142.78;;;6.83;100.00
19457;BME280;9867;48.094;11.478;2022-11-14T03:16:04;95149.88;;;6.88;100.00
19457;BME280;9867;48.094;11.478;2022-11-14T03:18:52;95142.41;;;6.48;100.00
19457;BME280;9867;48.094;11.478;2022-11-14T03:21:38;95150.97;;;6.56;100.00
19457;BME280;9867;48.094;11.478;2022-11-14T03:24:24;95144.75;;;6.73;100.00
19457;BME280;9867;48.094;11.478;2022-11-14T03:27:12;95135.88;;;6.46;100.00
19457;BME280;9867;48.094;11.478;2022-11-14T03:29:59;95121.03;;;6.35;100.00
19457;BME280;9867;48.094;11.478;2022-11-14T03:32:45;95120.47;;;6.62;100.00
19457;BME280;9867;48.094;11.478;2022-11-14T03:35:32;95107.22;;;6.67;100.00
19457;BME280;9867;48.094;11.478;2022-11-14T03:38:19;95142.19;;;6.58;100.00
19457;BME280;9867;48.094;11.478;2022-11-14T03:41:07;95147.06;;;5.91;100.00
19457;BME280;9867;48.094;11.478;2022-11-14T03:43:55;95141.53;;;5.79;100.00
19457;BME280;9867;48.094;11.478;2022-11-14T03:46:41;95133.69;;;6.20;100.00
19457;BME280;9867;48.094;11.478;2022-11-14T03:49:27;95141.59;;;6.48;100.00
19457;BME280;9867;48.094;11.478;2022-11-14T03:52:14;95141.41;;;6.35;100.00
19457;BME280;9867;48.094;11.478;2022-11-14T03:55:00;95153.56;;;5.55;100.00
19457;BME280;9867;48.094;11.478;2022-11-14T03:57:47;95146.47;;;5.42;100.00
19457;BME280;9867;48.094;11.478;2022-11-14T04:00:35;95151.28;;;6.07;100.00
19457;BME280;9867;48.094;11.478;2022-11-14T04:03:22;95152.66;;;6.40;100.00
19457;BME280;9867;48.094;11.478;2022-11-14T04:06:08;95144.66;;;6.21;100.00
19457;BME280;9867;48.094;11.478;2022-11-14T04:08:55;95138.13;;;5.56;100.00
19457;BME280;9867;48.094;11.478;2022-11-14T04:11:41;95157.59;;;5.80;100.00
19457;BME280;9867;48.094;11.478;2022-11-14T04:14:28;95175.41;;;5.33;100.00
19457;BME280;9867;48.094;11.478;2022-11-14T04:17:16;95149.25;;;5.00;100.00
19457;BME280;9867;48.094;11.478;2022-11-14T04:20:03;95149.00;;;5.89;100.00
19457;BME280;9867;48.094;11.478;2022-11-14T04:22:49;95143.94;;;5.73;100.00
19457;BME280;9867;48.094;11.478;2022-11-14T04:25:36;95141.50;;;5.48;100.00
19457;BME280;9867;48.094;11.478;2022-11-14T04:28:22;95140.81;;;5.63;100.00
19457;BME280;9867;48.094;11.478;2022-11-14T04:31:09;95135.91;;;5.53;100.00
19457;BME280;9867;48.094;11.478;2022-11-14T04:33:57;95126.09;;;5.81;100.00
19457;BME280;9867;48.094;11.478;2022-11-14T04:36:43;95132.34;;;5.70;100.00
19457;BME280;9867;48.094;11.478;2022-11-14T04:39:29;95134.69;;;5.80;100.00
19457;BME280;9867;48.094;11.478;2022-11-14T04:42:16;95126.03;;;5.66;100.00
19457;BME280;9867;48.094;11.478;2022-11-14T04:45:03;95124.63;;;5.87;100.00
19457;BME280;9867;48.094;11.478;2022-11-14T04:47:50;95117.16;;;6.16;100.00
19457;BME280;9867;48.094;11.478;2022-11-14T04:50:38;95131.53;;;6.09;100.00
19457;BME280;9867;48.094;11.478;2022-11-14T04:53:24;95138.75;;;5.97;100.00
19457;BME280;9867;48.094;11.478;2022-11-14T04:56:11;95136.63;;;6.09;100.00
19457;BME280;9867;48.094;11.478;2022-11-14T04:58:58;95151.50;;;6.20;100.00
19457;BME280;9867;48.094;11.478;2022-11-14T05:01:45;95156.28;;;6.23;100.00
19457;BME280;9867;48.094;11.478;2022-11-14T05:04:31;95144.19;;;5.94;100.00
19457;BME280;9867;48.094;11.478;2022-11-14T05:07:19;95141.44;;;6.27;100.00
19457;BME280;9867;48.094;11.478;2022-11-14T05:10:07;95143.88;;;6.20;100.00
19457;BME280;9867;48.094;11.478;2022-11-14T05:12:54;95142.56;;;6.01;100.00
19457;BME280;9867;48.094;11.478;2022-11-14T05:15:40;95146.31;;;6.13;100.00
19457;BME280;9867;48.094;11.478;2022-11-14T05:18:27;95137.84;;;5.90;100.00
19457;BME280;9867;48.094;11.478;2022-11-14T05:21:14;95141.38;;;5.73;100.00
19457;BME280;9867;48.094;11.478;2022-11-14T05:24:02;95141.34;;;5.50;100.00
19457;BME280;9867;48.094;11.478;2022-11-14T05:26:49;95138.84;;;5.42;100.00
19457;BME280;9867;48.094;11.478;2022-11-14T05:29:35;95144.72;;;5.42;100.00
19457;BME280;9867;48.094;11.478;2022-11-14T05:32:22;95140.13;;;5.30;100.00
19457;BME280;9867;48.094;11.478;2022-11-14T05:35:08;95141.06;;;5.37;100.00
19457;BME280;9867;48.094;11.478;2022-11-14T05:37:55;95136.53;;;5.08;100.00
19457;BME280;9867;48.094;11.478;2022-11-14T05:40:45;95137.34;;;5.00;100.00
19457;BME280;9867;48.094;11.478;2022-11-14T05:43:32;95144.69;;;4.95;100.00
19457;BME280;9867;48.094;11.478;2022-11-14T05:46:19;95134.78;;;5.00;100.00
19457;BME280;9867;48.094;11.478;2022-11-14T05:49:06;95152.06;;;5.29;100.00
19457;BME280;9867;48.094;11.478;2022-11-14T05:51:52;95158.19;;;4.71;100.00
19457;BME280;9867;48.094;11.478;2022-11-14T05:54:39;95156.72;;;5.18;100.00
19457;BME280;9867;48.094;11.478;2022-11-14T05:57:29;95154.06;;;5.50;100.00
19457;BME280;9867;48.094;11.478;2022-11-14T06:00:16;95163.09;;;5.53;100.00
19457;BME280;9867;48.094;11.478;2022-11-14T06:03:03;95170.41;;;5.64;100.00
19457;BME280;9867;48.094;11.478;2022-11-14T06:05:50;95166.69;;;5.74;100.00
19457;BME280;9867;48.094;11.478;2022-11-14T06:08:36;95160.59;;;5.83;100.00
19457;BME280;9867;48.094;11.478;2022-11-14T06:11:23;95174.06;;;5.61;100.00
19457;BME280;9867;48.094;11.478;2022-11-14T06:14:11;95176.31;;;5.56;100.00
19457;BME280;9867;48.094;11.478;2022-11-14T06:16:58;95182.50;;;5.62;100.00
19457;BME280;9867;48.094;11.478;2022-11-14T06:19:44;95188.63;;;5.75;100.00
19457;BME280;9867;48.094;11.478;2022-11-14T06:22:31;95191.81;;;5.77;100.00
19457;BME280;9867;48.094;11.478;2022-11-14T06:25:19;95192.19;;;5.66;100.00
19457;BME280;9867;48.094;11.478;2022-11-14T06:28:06;95199.03;;;5.58;100.00
19457;BME280;9867;48.094;11.478;2022-11-14T06:30:57;95206.88;;;5.32;100.00
19457;BME280;9867;48.094;11.478;2022-11-14T06:33:44;95205.78;;;5.26;100.00
19457;BME280;9867;48.094;11.478;2022-11-14T06:36:31;95194.66;;;5.82;100.00
19457;BME280;9867;48.094;11.478;2022-11-14T06:39:17;95194.72;;;5.66;100.00
19457;BME280;9867;48.094;11.478;2022-11-14T06:42:04;95182.56;;;5.85;100.00
19457;BME280;9867;48.094;11.478;2022-11-14T06:44:51;95187.28;;;5.96;100.00
19457;BME280;9867;48.094;11.478;2022-11-14T06:47:39;95199.84;;;6.05;100.00
19457;BME280;9867;48.094;11.478;2022-11-14T06:50:25;95191.38;;;6.13;100.00
19457;BME280;9867;48.094;11.478;2022-11-14T06:53:12;95192.56;;;6.25;100.00
19457;BME280;9867;48.094;11.478;2022-11-14T06:56:00;95195.72;;;5.96;100.00
19457;BME280;9867;48.094;11.478;2022-11-14T06:58:48;95186.63;;;6.02;100.00
19457;BME280;9867;48.094;11.478;2022-11-14T07:01:35;95180.16;;;5.91;100.00
19457;BME280;9867;48.094;11.478;2022-11-14T07:04:23;95176.56;;;5.69;100.00
19457;BME280;9867;48.094;11.478;2022-11-14T07:07:10;95201.50;;;5.82;100.00
19457;BME280;9867;48.094;11.478;2022-11-14T07:09:57;95193.19;;;5.96;100.00
19457;BME280;9867;48.094;11.478;2022-11-14T07:12:44;95180.88;;;6.08;100.00
19457;BME280;9867;48.094;11.478;2022-11-14T07:15:31;95181.53;;;6.33;100.00
19457;BME280;9867;48.094;11.478;2022-11-14T07:18:18;95187.81;;;6.45;100.00
19457;BME280;9867;48.094;11.478;2022-11-14T07:21:06;95190.81;;;6.26;100.00
19457;BME280;9867;48.094;11.478;2022-11-14T07:23:53;95185.81;;;6.09;100.00
19457;BME280;9867;48.094;11.478;2022-11-14T07:26:39;95182.09;;;5.89;100.00
19457;BME280;9867;48.094;11.478;2022-11-14T07:29:26;95184.31;;;6.15;100.00
19457;BME280;9867;48.094;11.478;2022-11-14T07:32:12;95173.56;;;5.66;100.00
19457;BME280;9867;48.094;11.478;2022-11-14T07:34:59;95167.41;;;5.44;100.00
19457;BME280;9867;48.094;11.478;2022-11-14T07:37:49;95174.53;;;6.35;100.00
19457;BME280;9867;48.094;11.478;2022-11-14T07:40:36;95186.81;;;6.54;100.00
19457;BME280;9867;48.094;11.478;2022-11-14T07:43:23;95188.84;;;6.81;100.00
19457;BME280;9867;48.094;11.478;2022-11-14T07:46:10;95183.47;;;6.91;100.00
19457;BME280;9867;48.094;11.478;2022-11-14T07:48:57;95192.38;;;6.95;100.00
19457;BME280;9867;48.094;11.478;2022-11-14T07:51:44;95186.06;;;7.06;100.00
19457;BME280;9867;48.094;11.478;2022-11-14T07:54:32;95183.59;;;7.12;100.00
19457;BME280;9867;48.094;11.478;2022-11-14T07:57:18;95175.09;;;7.05;100.00
19457;BME280;9867;48.094;11.478;2022-11-14T08:00:06;95181.44;;;7.24;100.00
19457;BME280;9867;48.094;11.478;2022-11-14T08:02:52;95170.97;;;7.34;100.00
19457;BME280;9867;48.094;11.478;2022-11-14T08:05:39;95168.06;;;7.37;100.00
19457;BME280;9867;48.094;11.478;2022-11-14T08:08:25;95165.44;;;7.45;100.00
19457;BME280;9867;48.094;11.478;2022-11-14T08:11:14;95160.22;;;7.68;100.00
19457;BME280;9867;48.094;11.478;2022-11-14T08:14:19;95153.63;;;7.59;100.00
19457;BME280;9867;48.094;11.478;2022-11-14T08:17:05;95148.00;;;7.78;100.00
19457;BME280;9867;48.094;11.478;2022-11-14T08:19:52;95160.28;;;7.89;100.00
19457;BME280;9867;48.094;11.478;2022-11-14T08:22:38;95156.78;;;8.11;100.00
19457;BME280;9867;48.094;11.478;2022-11-14T08:25:25;95146.94;;;8.08;100.00
19457;BME280;9867;48.094;11.478;2022-11-14T08:28:13;95149.09;;;8.26;100.00
19457;BME280;9867;48.094;11.478;2022-11-14T08:30:59;95147.34;;;8.27;100.00
19457;BME280;9867;48.094;11.478;2022-11-14T08:33:46;95142.41;;;7.89;100.00
19457;BME280;9867;48.094;11.478;2022-11-14T08:36:34;95150.00;;;8.18;100.00
19457;BME280;9867;48.094;11.478;2022-11-14T08:39:20;95144.50;;;8.36;100.00
19457;BME280;9867;48.094;11.478;2022-11-14T08:42:06;95154.97;;;8.63;100.00
19457;BME280;9867;48.094;11.478;2022-11-14T08:44:54;95144.44;;;8.72;100.00
19457;BME280;9867;48.094;11.478;2022-11-14T08:47:41;95150.72;;;8.70;100.00
19457;BME280;9867;48.094;11.478;2022-11-14T08:50:27;95148.84;;;8.85;100.00
19457;BME280;9867;48.094;11.478;2022-11-14T08:53:14;95146.00;;;8.95;100.00
19457;BME280;9867;48.094;11.478;2022-11-14T08:56:00;95158.53;;;9.17;100.00
19457;BME280;9867;48.094;11.478;2022-11-14T08:58:47;95157.69;;;9.38;100.00
19457;BME280;9867;48.094;11.478;2022-11-14T09:01:35;95159.78;;;9.00;100.00
19457;BME280;9867;48.094;11.478;2022-11-14T09:04:21;95153.25;;;9.26;100.00
19457;BME280;9867;48.094;11.478;2022-11-14T09:07:08;95147.69;;;9.50;100.00
19457;BME280;9867;48.094;11.478;2022-11-14T09:09:55;95156.88;;;9.72;100.00
19457;BME280;9867;48.094;11.478;2022-11-14T09:12:41;95147.09;;;9.89;100.00
19457;BME280;9867;48.094;11.478;2022-11-14T09:15:28;95152.19;;;9.41;100.00
19457;BME280;9867;48.094;11.478;2022-11-14T09:18:16;95157.88;;;9.09;100.00
19457;BME280;9867;48.094;11.478;2022-11-14T09:21:05;95159.50;;;8.88;100.00
19457;BME280;9867;48.094;11.478;2022-11-14T09:23:51;95161.47;;;8.86;100.00
19457;BME280;9867;48.094;11.478;2022-11-14T09:26:44;95151.31;;;9.69;100.00
19457;BME280;9867;48.094;11.478;2022-11-14T09:29:33;95146.34;;;10.02;100.00
19457;BME280;9867;48.094;11.478;2022-11-14T09:32:20;95141.94;;;9.82;100.00
19457;BME280;9867;48.094;11.478;2022-11-14T09:35:08;95142.88;;;9.68;100.00
19457;BME280;9867;48.094;11.478;2022-11-14T09:38:01;95152.34;;;9.68;100.00
19457;BME280;9867;48.094;11.478;2022-11-14T09:41:01;95168.63;;;10.01;100.00
19457;BME280;9867;48.094;11.478;2022-11-14T09:44:23;95150.28;;;9.56;100.00
19457;BME280;9867;48.094;11.478;2022-11-14T09:47:13;95157.31;;;10.37;100.00
19457;BME280;9867;48.094;11.478;2022-11-14T09:50:13;95178.88;;;10.55;100.00
19457;BME280;9867;48.094;11.478;2022-11-14T09:53:10;95163.50;;;10.82;100.00
19457;BME280;9867;48.094;11.478;2022-11-14T09:55:59;95182.03;;;11.17;100.00
19457;BME280;9867;48.094;11.478;2022-11-14T09:58:45;95182.41;;;11.47;100.00
19457;BME280;9867;48.094;11.478;2022-11-14T10:01:40;95181.63;;;11.40;100.00
19457;BME280;9867;48.094;11.478;2022-11-14T10:04:43;95176.31;;;11.28;100.00
19457;BME280;9867;48.094;11.478;2022-11-14T10:07:42;95178.91;;;10.82;100.00
19457;BME280;9867;48.094;11.478;2022-11-14T10:10:49;95180.84;;;11.13;100.00
19457;BME280;9867;48.094;11.478;2022-11-14T10:13:55;95185.53;;;11.62;100.00
19457;BME280;9867;48.094;11.478;2022-11-14T10:16:53;95184.50;;;11.83;100.00
19457;BME280;9867;48.094;11.478;2022-11-14T10:19:46;95182.56;;;11.78;100.00
19457;BME280;9867;48.094;11.478;2022-11-14T10:22:50;95169.75;;;11.45;100.00
19457;BME280;9867;48.094;11.478;2022-11-14T10:25:53;95169.63;;;11.01;100.00
19457;BME280;9867;48.094;11.478;2022-11-14T10:28:59;95179.91;;;11.07;100.00
19457;BME280;9867;48.094;11.478;2022-11-14T10:31:57;95179.09;;;11.00;100.00
19457;BME280;9867;48.094;11.478;2022-11-14T10:34:49;95179.66;;;11.15;100.00
19457;BME280;9867;48.094;11.478;2022-11-14T10:37:45;95176.91;;;11.23;100.00
19457;BME280;9867;48.094;11.478;2022-11-14T10:40:38;95166.25;;;11.20;100.00
19457;BME280;9867;48.094;11.478;2022-11-14T10:43:30;95180.44;;;11.36;100.00
19457;BME280;9867;48.094;11.478;2022-11-14T10:46:22;95170.75;;;11.44;100.00
19457;BME280;9867;48.094;11.478;2022-11-14T10:49:14;95182.63;;;11.45;100.00
19457;BME280;9867;48.094;11.478;2022-11-14T10:52:05;95178.66;;;11.56;100.00
19457;BME280;9867;48.094;11.478;2022-11-14T10:54:57;95181.22;;;11.43;100.00
19457;BME280;9867;48.094;11.478;2022-11-14T10:57:45;95179.06;;;11.46;100.00
19457;BME280;9867;48.094;11.478;2022-11-14T11:00:32;95187.75;;;11.52;100.00
19457;BME280;9867;48.094;11.478;2022-11-14T11:03:18;95183.78;;;11.56;100.00
19457;BME280;9867;48.094;11.478;2022-11-14T11:06:05;95188.16;;;11.49;100.00
19457;BME280;9867;48.094;11.478;2022-11-14T11:08:51;95191.50;;;11.49;100.00
19457;BME280;9867;48.094;11.478;2022-11-14T11:11:58;95193.47;;;11.34;100.00
19457;BME280;9867;48.094;11.478;2022-11-14T11:14:47;95193.69;;;11.13;100.00
19457;BME280;9867;48.094;11.478;2022-11-14T11:17:33;95189.38;;;11.07;100.00
19457;BME280;9867;48.094;11.478;2022-11-14T11:20:30;95205.75;;;10.92;100.00
19457;BME280;9867;48.094;11.478;2022-11-14T11:23:20;95222.69;;;10.74;100.00
19457;BME280;9867;48.094;11.478;2022-11-14T11:26:16;95213.31;;;10.27;100.00
19457;BME280;9867;48.094;11.478;2022-11-14T11:29:07;95226.53;;;9.89;100.00
19457;BME280;9867;48.094;11.478;2022-11-14T11:31:59;95227.25;;;9.76;100.00
19457;BME280;9867;48.094;11.478;2022-11-14T11:34:46;95229.81;;;9.76;100.00
19457;BME280;9867;48.094;11.478;2022-11-14T11:37:37;95228.91;;;9.90;100.00
19457;BME280;9867;48.094;11.478;2022-11-14T11:40:27;95223.56;;;9.92;100.00
19457;BME280;9867;48.094;11.478;2022-11-14T11:43:22;95227.31;;;9.89;100.00
19457;BME280;9867;48.094;11.478;2022-11-14T11:46:39;95236.97;;;9.94;100.00
19457;BME280;9867;48.094;11.478;2022-11-14T11:49:36;95243.69;;;9.88;100.00
19457;BME280;9867;48.094;11.478;2022-11-14T11:52:30;95234.56;;;9.79;100.00
19457;BME280;9867;48.094;11.478;2022-11-14T11:55:21;95232.44;;;9.89;100.00
19457;BME280;9867;48.094;11.478;2022-11-14T11:58:11;95236.56;;;9.84;100.00
19457;BME280;9867;48.094;11.478;2022-11-14T12:01:02;95229.47;;;9.86;100.00
19457;BME280;9867;48.094;11.478;2022-11-14T12:03:51;95229.38;;;10.07;100.00
19457;BME280;9867;48.094;11.478;2022-11-14T12:06:43;95236.25;;;10.48;100.00
19457;BME280;9867;48.094;11.478;2022-11-14T12:09:35;95250.94;;;10.87;100.00
19457;BME280;9867;48.094;11.478;2022-11-14T12:16:10;95242.22;;;10.68;100.00
19457;BME280;9867;48.094;11.478;2022-11-14T12:19:30;95252.34;;;10.96;100.00
19457;BME280;9867;48.094;11.478;2022-11-14T12:22:39;95240.53;;;11.28;100.00
19457;BME280;9867;48.094;11.478;2022-11-14T12:25:59;95253.34;;;11.41;100.00
19457;BME280;9867;48.094;11.478;2022-11-14T12:28:59;95252.75;;;11.66;100.00
19457;BME280;9867;48.094;11.478;2022-11-14T12:31:57;95253.91;;;11.83;100.00
19457;BME280;9867;48.094;11.478;2022-11-14T12:34:49;95258.88;;;11.65;100.00
19457;BME280;9867;48.094;11.478;2022-11-14T12:37:42;95265.19;;;11.95;100.00
19457;BME280;9867;48.094;11.478;2022-11-14T12:40:31;95258.44;;;12.01;100.00
19457;BME280;9867;48.094;11.478;2022-11-14T12:43:27;95249.31;;;12.11;100.00
19457;BME280;9867;48.094;11.478;2022-11-14T12:46:20;95250.59;;;12.34;100.00
19457;BME280;9867;48.094;11.478;2022-11-14T12:49:36;95257.50;;;12.46;100.00
19457;BME280;9867;48.094;11.478;2022-11-14T12:52:44;95270.09;;;12.61;100.00
19457;BME280;9867;48.094;11.478;2022-11-14T12:55:53;95268.88;;;12.70;100.00
19457;BME280;9867;48.094;11.478;2022-11-14T12:58:56;95267.88;;;12.71;100.00
19457;BME280;9867;48.094;11.478;2022-11-14T13:02:01;95271.25;;;12.65;100.00
19457;BME280;9867;48.094;11.478;2022-11-14T13:05:02;95277.41;;;12.64;100.00
19457;BME280;9867;48.094;11.478;2022-11-14T13:08:09;95278.13;;;12.33;100.00
19457;BME280;9867;48.094;11.478;2022-11-14T13:11:33;95266.16;;;12.01;100.00
19457;BME280;9867;48.094;11.478;2022-11-14T13:14:48;95265.59;;;11.72;100.00
19457;BME280;9867;48.094;11.478;2022-11-14T13:18:02;95279.81;;;11.61;100.00
19457;BME280;9867;48.094;11.478;2022-11-14T13:21:19;95273.09;;;11.60;100.00
19457;BME280;9867;48.094;11.478;2022-11-14T13:25:17;95259.88;;;11.77;100.00
19457;BME280;9867;48.094;11.478;2022-11-14T13:31:25;95256.69;;;11.75;100.00
19457;BME280;9867;48.094;11.478;2022-11-14T13:34:32;95258.66;;;11.92;100.00
19457;BME280;9867;48.094;11.478;2022-11-14T13:37:45;95261.03;;;11.94;100.00
19457;BME280;9867;48.094;11.478;2022-11-14T13:40:40;95251.16;;;11.84;100.00
19457;BME280;9867;48.094;11.478;2022-11-14T13:43:36;95249.22;;;11.80;100.00
19457;BME280;9867;48.094;11.478;2022-11-14T13:46:42;95253.31;;;11.94;100.00
19457;BME280;9867;48.094;11.478;2022-11-14T13:49:51;95246.00;;;11.98;100.00
19457;BME280;9867;48.094;11.478;2022-11-14T13:52:41;95245.59;;;11.94;100.00
19457;BME280;9867;48.094;11.478;2022-11-14T13:55:34;95236.50;;;11.98;100.00
19457;BME280;9867;48.094;11.478;2022-11-14T13:58:40;95245.75;;;12.57;100.00
19457;BME280;9867;48.094;11.478;2022-11-14T14:01:41;95248.06;;;13.03;100.00
19457;BME280;9867;48.094;11.478;2022-11-14T14:04:41;95244.56;;;13.47;100.00
19457;BME280;9867;48.094;11.478;2022-11-14T14:07:46;95248.06;;;13.78;100.00
19457;BME280;9867;48.094;11.478;2022-11-14T14:10:41;95255.50;;;13.92;100.00
19457;BME280;9867;48.094;11.478;2022-11-14T14:13:39;95252.47;;;13.95;100.00
19457;BME280;9867;48.094;11.478;2022-11-14T14:16:44;95245.84;;;13.38;100.00
19457;BME280;9867;48.094;11.478;2022-11-14T14:19:48;95247.88;;;12.73;100.00
19457;BME280;9867;48.094;11.478;2022-11-14T14:22:43;95234.94;;;12.48;100.00
19457;BME280;9867;48.094;11.478;2022-11-14T14:25:40;95245.84;;;12.37;100.00
19457;BME280;9867;48.094;11.478;2022-11-14T14:28:40;95240.19;;;12.22;100.00
19457;BME280;9867;48.094;11.478;2022-11-14T14:31:33;95242.06;;;12.46;100.00
19457;BME280;9867;48.094;11.478;2022-11-14T14:34:23;95238.91;;;12.76;100.00
19457;BME280;9867;48.094;11.478;2022-11-14T14:37:16;95245.00;;;12.88;100.00
19457;BME280;9867;48.094;11.478;2022-11-14T14:40:05;95247.75;;;12.93;100.00
19457;BME280;9867;48.094;11.478;2022-11-14T14:42:55;95244.16;;;12.62;100.00
19457;BME280;9867;48.094;11.478;2022-11-14T14:45:47;95238.41;;;12.22;100.00
19457;BME280;9867;48.094;11.478;2022-11-14T14:48:39;95248.22;;;11.81;100.00
19457;BME280;9867;48.094;11.478;2022-11-14T14:51:32;95251.19;;;11.45;100.00
19457;BME280;9867;48.094;11.478;2022-11-14T14:54:20;95245.25;;;11.18;100.00
19457;BME280;9867;48.094;11.478;2022-11-14T14:57:15;95243.22;;;10.87;100.00
19457;BME280;9867;48.094;11.478;2022-11-14T15:00:17;95236.09;;;10.69;100.00
19457;BME280;9867;48.094;11.478;2022-11-14T15:03:08;95238.84;;;10.54;100.00
19457;BME280;9867;48.094;11.478;2022-11-14T15:05:59;95236.22;;;10.41;100.00
19457;BME280;9867;48.094;11.478;2022-11-14T15:08:46;95230.69;;;10.31;100.00